createdAt,value
2022-12-08T06:32:06.329Z,34.10
2022-12-08T06:32:37.537Z,39.90
2022-12-08T06:33:08.736Z,36.40
2022-12-08T06:33:39.990Z,41.50
2022-12-08T06:34:10.879Z,36.80
2022-12-08T06:34:41.963Z,40.10
2022-12-08T06:35:13.098Z,43.40
2022-12-08T06:35:44.148Z,40.50
2022-12-08T06:36:15.339Z,35.60
2022-12-08T06:36:46.545Z,38.30
2022-12-08T06:37:17.548Z,38.00
2022-12-08T06:55:59.172Z,31.70
2022-12-08T07:23:57.604Z,32.30
2022-12-08T07:24:24.078Z,32.10
2022-12-08T07:24:55.280Z,29.70
2022-12-08T07:25:26.917Z,31.60
2022-12-08T07:25:57.597Z,31.80
2022-12-08T07:26:30.854Z,34.00
2022-12-08T07:27:07.874Z,32.20
2022-12-08T07:42:39.501Z,30.00
2022-12-08T07:42:53.830Z,30.10
2022-12-08T07:43:21.652Z,31.40
2022-12-08T07:43:52.483Z,31.50
2022-12-08T07:44:28.352Z,26.70
2022-12-08T07:45:01.344Z,28.00
2022-12-08T07:45:33.693Z,29.20
2022-12-08T07:46:14.074Z,29.80
2022-12-08T14:56:30.281Z,43.60
2022-12-08T14:57:01.049Z,47.70
2022-12-08T14:57:31.995Z,54.70
2022-12-08T14:58:02.950Z,89.80
2022-12-08T14:58:33.958Z,84.10
2022-12-08T14:59:04.817Z,79.00
2022-12-08T14:59:36.468Z,73.10
2022-12-08T15:00:07.902Z,85.00
2022-12-08T15:00:39.901Z,66.30
2022-12-08T15:01:10.806Z,66.40
2022-12-08T15:01:41.881Z,72.50
2022-12-08T15:02:12.923Z,59.50
2022-12-08T15:02:45.930Z,57.60
2022-12-08T15:03:17.685Z,65.30
2022-12-08T15:03:51.548Z,65.30
2022-12-08T15:04:20.762Z,68.30
2022-12-08T15:04:52.774Z,61.10
2022-12-08T15:05:24.214Z,57.80
2022-12-08T15:05:56.608Z,48.90
2022-12-08T15:06:27.769Z,59.80
2022-12-08T15:06:58.997Z,54.10
2022-12-08T15:07:30.132Z,59.10
2022-12-08T15:08:01.405Z,59.10
2022-12-08T15:08:32.811Z,46.10
2022-12-08T15:09:04.044Z,52.80
2022-12-08T15:09:35.109Z,46.50
2022-12-08T15:10:06.927Z,51.50
2022-12-08T15:10:38.747Z,33.90
2022-12-08T15:11:10.326Z,47.30
2022-12-08T15:11:41.851Z,41.40
2022-12-08T15:12:13.206Z,34.40
2022-12-08T15:12:45.144Z,41.10
2022-12-08T15:13:16.183Z,40.10
2022-12-08T15:13:47.120Z,30.30
2022-12-08T15:14:18.224Z,36.30
2022-12-08T15:14:49.538Z,42.80
2022-12-08T15:15:20.697Z,33.10
2022-12-08T15:15:51.958Z,26.90
2022-12-08T15:16:23.545Z,34.40
2022-12-08T15:16:55.630Z,29.50
2022-12-08T15:17:26.948Z,32.10
2022-12-08T15:17:58.042Z,30.40
2022-12-08T15:18:32.060Z,34.50
2022-12-08T15:19:00.560Z,29.80
2022-12-08T15:19:31.705Z,29.80
2022-12-08T15:20:11.085Z,32.00
2022-12-08T15:20:35.426Z,28.50
2022-12-08T15:21:03.662Z,34.90
2022-12-08T15:21:34.934Z,36.70
2022-12-08T15:22:06.315Z,34.90
2022-12-08T15:22:37.979Z,39.40
2022-12-08T15:23:09.481Z,62.20
2022-12-08T15:23:40.587Z,66.60
2022-12-08T15:24:11.690Z,59.00
2022-12-08T15:24:43.034Z,61.60
2022-12-08T15:25:15.539Z,51.90
2022-12-08T15:25:49.056Z,42.00
2022-12-08T15:26:17.440Z,60.40
2022-12-08T15:26:49.641Z,53.90
2022-12-08T15:27:22.280Z,50.50
2022-12-08T15:27:53.937Z,44.10
2022-12-08T15:28:29.483Z,62.20
2022-12-08T15:28:58.657Z,104.20
2022-12-08T15:29:30.101Z,56.20
2022-12-08T15:30:01.791Z,43.80
2022-12-08T15:30:34.685Z,49.20
2022-12-08T15:31:06.396Z,83.80
2022-12-08T15:31:37.812Z,78.90
2022-12-08T15:32:09.050Z,35.30
2022-12-08T15:32:41.427Z,51.50
2022-12-08T15:33:12.713Z,55.70
2022-12-08T15:33:43.648Z,78.40
2022-12-08T15:34:14.867Z,71.00
2022-12-08T15:34:46.107Z,72.40
2022-12-08T15:35:17.529Z,62.90
2022-12-08T15:35:48.532Z,55.00
2022-12-08T15:36:19.711Z,79.30
2022-12-08T15:36:50.696Z,79.80
2022-12-08T15:37:21.945Z,67.60
2022-12-08T15:37:54.724Z,105.40
2022-12-08T15:38:25.845Z,89.90
2022-12-08T15:38:57.042Z,97.70
2022-12-08T15:39:28.292Z,46.90
2022-12-08T15:39:59.420Z,66.00
2022-12-08T15:40:31.153Z,67.90
2022-12-08T15:41:03.693Z,61.90
2022-12-08T15:41:37.769Z,61.60
2022-12-08T15:42:11.305Z,78.50
2022-12-08T18:20:26.890Z,94.50
2022-12-08T18:20:57.684Z,89.60
2022-12-08T18:21:28.537Z,99.20
2022-12-08T18:21:59.522Z,107.10
2022-12-08T18:22:30.601Z,107.60
2022-12-08T18:23:01.544Z,134.20
2022-12-08T18:23:32.444Z,140.60
2022-12-08T18:24:03.592Z,115.10
2022-12-08T18:24:34.462Z,119.80
2022-12-08T18:25:05.505Z,108.60
2022-12-08T18:25:36.596Z,100.60
2022-12-08T18:26:07.522Z,148.30
2022-12-08T18:26:38.444Z,130.50
2022-12-08T18:27:09.965Z,100.50
2022-12-08T18:27:43.174Z,135.20
2022-12-08T18:28:12.962Z,110.20
2022-12-08T18:28:46.480Z,93.50
2022-12-08T18:29:16.145Z,126.70
2022-12-08T18:29:50.257Z,130.80
2022-12-08T18:30:18.717Z,118.20
2022-12-08T18:30:50.494Z,114.30
2022-12-08T18:31:22.703Z,148.40
2022-12-08T18:31:53.802Z,132.60
2022-12-08T18:32:24.932Z,117.70
2022-12-08T18:32:57.547Z,139.10
2022-12-08T18:33:29.179Z,142.80
2022-12-08T18:34:00.822Z,72.70
2022-12-08T18:34:32.532Z,104.00
2022-12-08T18:35:03.504Z,109.50
2022-12-08T18:35:35.834Z,93.20
2022-12-08T18:36:07.143Z,116.40
2022-12-08T18:36:42.260Z,105.40
2022-12-08T18:37:10.265Z,110.20
2022-12-08T18:37:41.417Z,117.80
2022-12-08T19:10:51.961Z,159.40
2022-12-08T19:11:22.722Z,122.10
2022-12-08T19:11:53.517Z,150.00
2022-12-08T19:12:24.283Z,150.50
2022-12-08T19:12:55.040Z,148.70
2022-12-08T19:13:27.288Z,157.80
2022-12-08T19:13:58.883Z,170.30
2022-12-08T19:14:30.102Z,206.70
2022-12-08T19:15:02.064Z,146.40
2022-12-08T19:15:34.516Z,120.60
2022-12-08T19:16:06.721Z,309.70
2022-12-08T19:16:38.136Z,162.20
2022-12-08T19:17:09.483Z,167.80
2022-12-08T19:17:40.552Z,154.90
2022-12-08T19:18:11.634Z,182.00
2022-12-08T19:18:42.753Z,175.10
2022-12-08T19:19:13.843Z,155.00
2022-12-08T19:19:44.764Z,165.20
2022-12-08T19:20:15.915Z,175.70
2022-12-08T19:20:46.963Z,165.80
2022-12-08T19:21:18.214Z,124.30
2022-12-08T19:21:49.382Z,173.70
2022-12-08T19:22:20.656Z,169.60
2022-12-08T19:22:51.999Z,179.30
2022-12-08T19:23:22.987Z,106.20
2022-12-08T19:23:53.976Z,147.90
2022-12-08T19:24:24.918Z,160.10
2022-12-08T19:24:55.956Z,150.90
2022-12-08T19:25:26.845Z,134.70
2022-12-08T19:25:57.737Z,117.90
2022-12-08T19:26:28.663Z,137.50
2022-12-08T19:26:59.600Z,126.30
2022-12-08T19:27:30.491Z,126.70
2022-12-08T19:28:01.500Z,129.90
2022-12-08T19:28:32.531Z,144.70
2022-12-08T19:29:03.695Z,118.40
2022-12-08T19:29:35.031Z,110.80
2022-12-08T19:30:06.304Z,95.50
2022-12-08T19:30:37.591Z,115.30
2022-12-08T19:31:09.254Z,150.90
2022-12-08T19:31:40.434Z,126.50
2022-12-08T19:32:11.781Z,110.50
2022-12-08T19:32:43.019Z,105.10
2022-12-08T19:33:14.205Z,110.70
2022-12-08T19:33:45.092Z,109.30
2022-12-08T19:34:16.286Z,110.00
2022-12-08T19:34:47.361Z,132.70
2022-12-08T19:35:18.612Z,126.10
2022-12-08T19:35:52.665Z,127.70
2022-12-08T19:36:21.231Z,119.50
2022-12-08T19:36:52.432Z,104.80
2022-12-08T19:37:23.751Z,101.50
2022-12-08T19:37:54.744Z,106.20
2022-12-08T19:38:25.668Z,95.70
2022-12-08T19:38:56.806Z,89.60
2022-12-08T19:39:27.795Z,74.20
2022-12-08T19:39:58.648Z,84.90
2022-12-08T19:40:29.543Z,117.20
2022-12-08T19:41:00.410Z,114.40
2022-12-08T19:41:31.353Z,98.80
2022-12-08T19:42:02.216Z,107.10
2022-12-08T19:42:33.173Z,122.70
2022-12-08T19:43:04.037Z,115.90
2022-12-08T19:43:35.145Z,107.90
2022-12-08T19:44:06.931Z,104.00
2022-12-08T19:44:37.945Z,116.40
2022-12-08T19:45:08.985Z,81.10
2022-12-08T19:45:40.138Z,94.30
2022-12-08T19:46:11.406Z,113.90
2022-12-08T19:46:42.895Z,116.70
2022-12-08T19:47:14.064Z,107.10
2022-12-08T19:47:45.281Z,104.60
2022-12-08T19:48:16.315Z,93.40
2022-12-08T19:48:47.412Z,103.40
2022-12-08T19:49:18.390Z,78.70
2022-12-08T19:49:49.452Z,85.00
2022-12-08T19:50:20.755Z,87.40
2022-12-08T19:50:52.195Z,96.40
2022-12-08T19:51:23.232Z,109.20
2022-12-08T19:51:54.308Z,109.90
2022-12-08T19:52:25.449Z,88.40
2022-12-08T19:52:56.803Z,91.80
2022-12-08T19:53:27.769Z,109.00
2022-12-08T19:53:58.974Z,115.20
2022-12-08T19:54:30.128Z,80.60
2022-12-08T19:55:01.248Z,89.50
2022-12-08T19:55:32.361Z,82.40
2022-12-08T19:56:03.449Z,76.90
2022-12-08T19:56:34.827Z,100.10
2022-12-08T19:57:06.242Z,75.70
2022-12-08T19:57:37.356Z,71.40
2022-12-08T19:58:08.365Z,68.70
2022-12-08T19:58:39.547Z,76.30
2022-12-08T19:59:13.396Z,71.20
2022-12-08T19:59:41.203Z,74.70
2022-12-08T20:00:12.321Z,77.80
2022-12-08T20:00:43.347Z,84.60
2022-12-08T20:01:14.215Z,87.40
2022-12-08T20:01:45.087Z,99.80
2022-12-08T20:02:15.991Z,116.40
2022-12-08T20:02:46.942Z,129.30
2022-12-08T20:03:18.261Z,136.50
2022-12-08T20:03:49.396Z,126.70
2022-12-08T20:04:20.415Z,83.50
2022-12-08T20:04:51.491Z,115.30
2022-12-08T20:05:23.573Z,108.30
2022-12-08T20:05:54.529Z,81.60
2022-12-08T20:06:25.670Z,116.30
2022-12-08T20:06:56.681Z,92.30
2022-12-08T20:07:27.748Z,87.50
2022-12-08T20:07:58.804Z,101.80
2022-12-08T20:08:30.018Z,136.70
2022-12-08T20:09:00.965Z,95.70
2022-12-08T20:09:31.955Z,91.50
2022-12-08T20:10:03.177Z,97.60
2022-12-08T20:10:34.647Z,106.50
2022-12-08T20:11:05.719Z,158.80
2022-12-08T20:11:36.722Z,176.00
2022-12-08T20:12:07.750Z,128.30
2022-12-08T20:12:38.665Z,113.10
2022-12-08T20:13:09.656Z,129.00
2022-12-08T20:13:40.832Z,119.30
2022-12-08T20:14:11.760Z,126.00
2022-12-08T20:14:46.101Z,134.00
2022-12-08T20:15:14.252Z,142.50
2022-12-08T20:15:45.268Z,116.10
2022-12-08T20:16:16.331Z,101.70
2022-12-08T20:16:47.431Z,116.50
2022-12-08T20:17:18.422Z,124.60
2022-12-08T20:17:49.360Z,118.40
2022-12-08T20:18:20.293Z,99.30
2022-12-08T20:18:51.181Z,105.60
2022-12-08T20:19:22.111Z,106.20
2022-12-08T20:19:53.049Z,124.70
2022-12-08T20:20:23.992Z,95.20
2022-12-08T20:20:55.101Z,100.00
2022-12-08T20:21:26.016Z,100.70
2022-12-08T20:21:56.950Z,110.80
2022-12-08T20:22:27.850Z,111.90
2022-12-08T20:22:58.746Z,128.60
2022-12-08T20:23:29.939Z,113.20
2022-12-08T20:24:01.762Z,121.20
2022-12-08T20:24:32.683Z,121.00
2022-12-08T20:25:03.579Z,116.80
2022-12-08T20:25:34.765Z,99.80
2022-12-08T20:26:05.836Z,100.10
2022-12-08T20:26:36.775Z,96.30
2022-12-08T20:27:07.777Z,110.50
2022-12-08T20:27:38.805Z,110.10
2022-12-08T20:28:09.757Z,120.50
2022-12-08T20:28:40.726Z,115.30
2022-12-08T20:29:11.669Z,106.80
2022-12-08T20:29:42.639Z,102.50
2022-12-08T20:30:17.278Z,101.70
2022-12-08T20:30:45.481Z,98.70
2022-12-08T20:31:16.678Z,94.70
2022-12-08T20:31:47.626Z,89.50
2022-12-08T20:32:18.551Z,98.70
2022-12-08T20:32:49.432Z,104.10
2022-12-08T20:33:20.412Z,109.40
2022-12-08T20:33:51.402Z,109.70
2022-12-08T20:34:22.333Z,100.50
2022-12-08T20:34:53.300Z,98.10
2022-12-08T20:35:24.312Z,96.20
2022-12-08T20:35:58.949Z,118.70
2022-12-08T20:36:27.117Z,97.60
2022-12-08T20:36:58.048Z,109.00
2022-12-08T20:37:29.006Z,108.40
2022-12-08T20:37:59.941Z,109.60
2022-12-08T20:38:30.884Z,107.30
2022-12-08T20:39:01.870Z,93.20
2022-12-08T20:39:32.796Z,98.30
2022-12-08T20:40:03.719Z,94.80
2022-12-08T20:40:34.663Z,90.80
2022-12-08T20:41:05.598Z,87.50
2022-12-08T20:41:39.284Z,94.50
2022-12-08T20:42:07.222Z,93.70
2022-12-08T20:42:38.122Z,81.00
2022-12-08T20:43:09.018Z,66.30
2022-12-08T20:43:39.876Z,67.50
2022-12-08T20:44:10.843Z,70.40
2022-12-08T20:44:41.793Z,53.80
2022-12-08T20:45:12.735Z,57.90
2022-12-08T20:45:43.602Z,53.20
2022-12-08T20:46:14.639Z,58.20
2022-12-08T20:46:49.440Z,55.70
2022-12-08T20:48:17.717Z,65.20
2022-12-08T20:48:48.761Z,70.30
2022-12-08T20:49:19.809Z,54.40
2022-12-08T20:49:50.682Z,60.60
2022-12-08T20:50:21.575Z,59.20
2022-12-08T20:50:52.712Z,51.90
2022-12-08T20:51:30.054Z,50.90
2022-12-08T20:51:56.431Z,49.30
2022-12-08T20:52:27.516Z,46.00
2022-12-08T20:52:58.543Z,46.10
2022-12-08T20:53:29.564Z,48.50
2022-12-08T20:54:00.390Z,50.60
2022-12-08T20:54:31.368Z,50.00
2022-12-08T20:55:02.703Z,50.90
2022-12-08T20:55:33.709Z,53.20
2022-12-08T20:56:04.669Z,69.20
2022-12-08T20:56:35.709Z,61.20
2022-12-08T20:57:06.653Z,56.90
2022-12-08T20:57:37.684Z,54.10
2022-12-08T20:58:08.739Z,54.90
2022-12-08T20:58:39.802Z,55.20
2022-12-08T20:59:10.795Z,51.90
2022-12-08T20:59:41.819Z,52.50
2022-12-08T21:00:13.162Z,47.10
2022-12-08T21:00:44.408Z,50.90
2022-12-08T21:01:15.549Z,49.60
2022-12-08T21:01:46.504Z,49.40
2022-12-08T21:02:17.574Z,49.20
2022-12-08T21:02:54.767Z,52.60
2022-12-08T21:03:21.419Z,50.60
2022-12-08T21:03:52.730Z,54.00
2022-12-08T21:04:24.617Z,56.70
2022-12-08T21:04:55.835Z,64.80
2022-12-08T21:05:27.075Z,54.90
2022-12-08T21:05:58.237Z,59.90
2022-12-08T21:06:29.295Z,60.40
2022-12-08T21:07:00.249Z,50.90
2022-12-08T21:07:31.189Z,51.60
2022-12-08T21:08:02.134Z,49.70
2022-12-08T21:08:33.455Z,57.60
2022-12-08T21:09:04.840Z,54.10
2022-12-08T21:09:35.790Z,53.30
2022-12-08T21:10:07.266Z,55.90
2022-12-08T21:10:43.634Z,54.30
2022-12-08T21:11:11.201Z,49.30
2022-12-08T21:11:42.131Z,56.60
2022-12-08T21:12:13.340Z,51.60
2022-12-08T21:12:44.868Z,51.10
